Time;durP1;ratioP1;P1;durP2;ratioP2;P2;SDS_P1;SDS_P2;PMS_P1;PMS_P2;Temp;Humidity;BMP_temperature;BMP_pressure;BME280_temperature;BME280_humidity;BME280_pressure;Samples;Min_cycle;Max_cycle;Signal;HPM_P1;HPM_P2
2023/06/16 00:01:04;;;;;;;13.03;11.93;;;17.10;1.00;;;;;;4990212;28;20542;-71
2023/06/16 00:03:33;;;;;;;13.63;12.37;;;17.10;1.00;;;;;;4991270;28;20870;-73
2023/06/16 00:06:03;;;;;;;13.67;12.47;;;17.10;1.00;;;;;;4991288;28;20482;-71
2023/06/16 00:08:31;;;;;;;12.77;11.87;;;17.10;1.00;;;;;;4995146;28;20455;-71
2023/06/16 00:10:58;;;;;;;14.13;12.83;;;17.10;1.00;;;;;;4991027;28;20471;-71
2023/06/16 00:13:26;;;;;;;13.07;11.90;;;17.20;1.00;;;;;;4989187;28;20459;-71
2023/06/16 00:15:53;;;;;;;12.77;11.77;;;17.30;1.00;;;;;;4991383;28;20484;-71
2023/06/16 00:18:20;;;;;;;13.93;12.83;;;17.20;1.00;;;;;;4991791;28;20454;-71
2023/06/16 00:20:51;;;;;;;13.57;12.40;;;17.20;1.00;;;;;;4990567;28;20472;-71
2023/06/16 00:23:20;;;;;;;13.40;12.30;;;17.20;1.00;;;;;;4989721;28;20459;-71
2023/06/16 00:25:49;;;;;;;14.20;12.80;;;17.20;1.00;;;;;;4988673;28;21048;-70
2023/06/16 00:28:16;;;;;;;12.30;11.10;;;17.10;1.00;;;;;;4991237;28;20484;-71
2023/06/16 00:30:44;;;;;;;13.20;12.00;;;17.10;1.00;;;;;;4989387;28;20587;-71
2023/06/16 00:33:12;;;;;;;14.00;12.70;;;17.20;1.00;;;;;;4991354;28;20547;-71
2023/06/16 00:35:39;;;;;;;13.40;12.20;;;17.20;1.00;;;;;;4989147;28;20483;-70
2023/06/16 00:38:06;;;;;;;13.17;11.97;;;17.20;1.00;;;;;;4991098;28;20542;-71
2023/06/16 00:40:33;;;;;;;13.40;12.10;;;17.20;1.00;;;;;;4995219;28;20483;-71
2023/06/16 00:43:02;;;;;;;12.50;11.50;;;17.20;1.00;;;;;;4995815;28;20971;-71
2023/06/16 00:45:29;;;;;;;13.50;12.13;;;17.20;1.00;;;;;;4995889;28;20590;-71
2023/06/16 00:47:56;;;;;;;10.97;9.87;;;17.10;1.00;;;;;;4995527;28;20551;-71
2023/06/16 00:50:24;;;;;;;10.90;10.00;;;17.10;1.00;;;;;;4990419;28;20905;-71
2023/06/16 00:52:51;;;;;;;11.30;10.40;;;17.00;1.00;;;;;;4987575;28;20473;-71
2023/06/16 00:55:21;;;;;;;11.50;10.40;;;17.00;1.00;;;;;;4992011;28;20546;-71
2023/06/16 00:57:49;;;;;;;10.70;9.80;;;16.90;1.00;;;;;;4991748;28;20472;-71
2023/06/16 01:00:18;;;;;;;11.33;10.27;;;16.90;1.00;;;;;;4988451;28;20555;-70
2023/06/16 01:02:45;;;;;;;10.10;9.20;;;16.90;1.00;;;;;;4988061;28;20476;-71
2023/06/16 01:05:15;;;;;;;10.97;9.87;;;16.90;1.00;;;;;;4990886;28;20463;-71
2023/06/16 01:07:48;;;;;;;9.83;9.03;;;16.90;1.00;;;;;;4989315;28;20466;-71
2023/06/16 01:10:20;;;;;;;9.83;9.03;;;16.90;1.00;;;;;;4988068;28;20542;-70
2023/06/16 01:12:56;;;;;;;10.60;9.60;;;16.90;1.00;;;;;;4987302;28;20517;-71
2023/06/16 01:15:27;;;;;;;9.30;8.50;;;16.80;1.00;;;;;;4988435;28;20481;-71
2023/06/16 01:17:57;;;;;;;10.07;9.27;;;16.80;1.00;;;;;;4985815;28;20845;-71
2023/06/16 01:20:37;;;;;;;9.57;8.70;;;16.80;1.00;;;;;;4989880;28;20992;-70
2023/06/16 01:23:15;;;;;;;9.30;8.50;;;16.80;1.00;;;;;;4991108;28;20462;-71
2023/06/16 01:25:48;;;;;;;8.80;8.00;;;16.80;1.00;;;;;;4991593;28;20822;-72
2023/06/16 01:28:18;;;;;;;9.20;8.30;;;16.80;1.00;;;;;;4985405;28;20872;-71
2023/06/16 01:30:50;;;;;;;9.57;8.67;;;16.80;1.00;;;;;;4986876;28;20463;-71
2023/06/16 01:33:18;;;;;;;10.63;9.63;;;16.90;1.00;;;;;;4986478;28;20522;-71
2023/06/16 01:35:46;;;;;;;9.50;8.73;;;16.90;1.00;;;;;;4987377;28;20835;-71
2023/06/16 01:38:14;;;;;;;11.73;10.53;;;16.90;1.00;;;;;;4989753;28;20506;-71
2023/06/16 01:40:42;;;;;;;9.00;8.10;;;16.90;1.00;;;;;;4990065;28;20984;-71
2023/06/16 01:43:11;;;;;;;10.20;9.30;;;17.00;1.00;;;;;;4989830;28;22764;-71
2023/06/16 01:45:40;;;;;;;9.40;8.60;;;17.00;1.00;;;;;;4987624;28;20471;-71
2023/06/16 01:48:07;;;;;;;10.07;9.17;;;16.90;1.00;;;;;;4986428;28;20931;-71
2023/06/16 01:50:34;;;;;;;10.43;9.43;;;17.00;1.00;;;;;;4989392;28;20558;-72
2023/06/16 01:53:01;;;;;;;10.30;9.43;;;17.00;1.00;;;;;;4988549;28;20908;-70
2023/06/16 01:55:28;;;;;;;10.20;9.20;;;17.00;1.00;;;;;;4989505;28;20556;-70
2023/06/16 01:57:56;;;;;;;9.90;9.10;;;17.00;1.00;;;;;;4987910;28;20467;-72
2023/06/16 02:00:29;;;;;;;10.70;9.77;;;17.00;1.00;;;;;;4987007;28;20836;-70
2023/06/16 02:03:03;;;;;;;10.37;9.20;;;17.10;1.00;;;;;;4988220;28;20475;-71
2023/06/16 02:05:34;;;;;;;10.17;9.13;;;17.10;1.00;;;;;;4989957;28;20525;-71
2023/06/16 02:08:03;;;;;;;9.60;8.80;;;17.10;1.00;;;;;;4989862;28;20942;-70
2023/06/16 02:10:30;;;;;;;9.13;8.43;;;17.10;1.00;;;;;;4990198;28;20498;-70
2023/06/16 02:12:57;;;;;;;8.47;7.73;;;17.10;1.00;;;;;;4984261;28;20564;-71
2023/06/16 02:15:27;;;;;;;8.80;8.00;;;17.10;1.00;;;;;;4988922;28;21037;-71
2023/06/16 02:17:57;;;;;;;9.33;8.40;;;17.20;1.00;;;;;;4987294;28;20475;-70
2023/06/16 02:20:25;;;;;;;10.07;9.13;;;17.20;1.00;;;;;;4988237;28;21419;-71
2023/06/16 02:22:52;;;;;;;8.97;8.10;;;17.20;1.00;;;;;;4986314;28;20463;-72
2023/06/16 02:25:20;;;;;;;9.67;8.87;;;17.30;1.00;;;;;;4991147;28;20480;-72
2023/06/16 02:27:47;;;;;;;8.93;8.10;;;17.30;1.00;;;;;;4987476;28;20940;-72
2023/06/16 02:30:15;;;;;;;8.10;7.30;;;17.30;1.00;;;;;;4990782;28;20542;-71
2023/06/16 02:32:43;;;;;;;8.57;7.77;;;17.20;1.00;;;;;;4989078;28;20498;-70
2023/06/16 02:35:10;;;;;;;8.33;7.53;;;17.30;1.00;;;;;;4989866;28;20467;-70
2023/06/16 02:37:37;;;;;;;8.87;7.87;;;17.30;1.00;;;;;;4990002;28;20594;-70
2023/06/16 02:40:05;;;;;;;8.23;7.43;;;17.20;1.00;;;;;;4993876;28;20550;-71
2023/06/16 02:42:33;;;;;;;8.37;7.50;;;17.20;1.00;;;;;;4991129;28;20467;-71
2023/06/16 02:44:59;;;;;;;11.30;7.70;;;17.20;1.00;;;;;;4990332;28;20502;-71
2023/06/16 02:47:27;;;;;;;7.43;6.83;;;17.10;1.00;;;;;;4987006;28;20461;-71
2023/06/16 02:49:55;;;;;;;8.70;7.90;;;17.10;1.00;;;;;;4990427;28;20899;-71
2023/06/16 02:52:22;;;;;;;8.17;7.43;;;17.10;1.00;;;;;;4989703;28;21414;-71
2023/06/16 02:54:49;;;;;;;7.67;6.97;;;17.20;1.00;;;;;;4994169;28;20538;-70
2023/06/16 02:57:16;;;;;;;7.00;6.30;;;17.20;1.00;;;;;;4988644;28;20516;-71
2023/06/16 02:59:42;;;;;;;7.70;7.10;;;17.10;1.00;;;;;;4991100;28;22418;-71
2023/06/16 03:02:09;;;;;;;8.70;7.80;;;17.20;1.00;;;;;;4988447;28;20566;-71
2023/06/16 03:04:36;;;;;;;11.03;7.40;;;17.20;1.00;;;;;;4989192;28;21089;-71
2023/06/16 03:07:05;;;;;;;8.70;7.90;;;17.20;1.00;;;;;;4989915;28;20479;-70
2023/06/16 03:09:32;;;;;;;9.90;8.97;;;17.20;1.00;;;;;;4992461;28;20859;-70
2023/06/16 03:11:59;;;;;;;10.20;9.10;;;17.20;1.00;;;;;;4993330;28;20928;-70
2023/06/16 03:14:26;;;;;;;9.53;8.53;;;17.20;1.00;;;;;;4994115;28;20507;-70
2023/06/16 03:16:55;;;;;;;8.73;7.90;;;17.20;1.00;;;;;;4988216;28;20954;-71
2023/06/16 03:19:22;;;;;;;13.30;9.33;;;17.20;1.00;;;;;;4993008;28;20474;-70
2023/06/16 03:21:50;;;;;;;10.23;9.23;;;17.30;1.00;;;;;;4992466;28;20612;-70
2023/06/16 03:24:18;;;;;;;10.67;9.63;;;17.20;1.00;;;;;;4992644;28;20602;-70
2023/06/16 03:26:46;;;;;;;12.27;10.80;;;17.30;1.00;;;;;;4989162;28;20471;-71
2023/06/16 03:29:13;;;;;;;11.13;10.03;;;17.30;1.00;;;;;;4988131;28;20490;-70
2023/06/16 03:31:41;;;;;;;11.80;10.70;;;17.30;1.00;;;;;;4989877;28;20570;-71
2023/06/16 03:34:08;;;;;;;14.60;13.17;;;17.30;1.00;;;;;;4990712;28;20474;-70
2023/06/16 03:36:36;;;;;;;11.33;10.23;;;17.30;1.00;;;;;;4992952;28;20522;-71
2023/06/16 03:39:03;;;;;;;12.07;11.07;;;17.30;1.00;;;;;;4991756;28;20456;-71
2023/06/16 03:41:32;;;;;;;13.53;11.20;;;17.30;1.00;;;;;;4991591;28;20837;-70
2023/06/16 03:43:59;;;;;;;13.57;12.13;;;17.30;1.00;;;;;;4992176;28;20485;-71
2023/06/16 03:46:27;;;;;;;17.37;11.90;;;17.30;1.00;;;;;;4991280;28;21430;-70
2023/06/16 03:48:54;;;;;;;16.10;14.57;;;17.30;1.00;;;;;;4993089;28;20431;-71
2023/06/16 03:51:21;;;;;;;11.40;10.30;;;17.30;1.00;;;;;;4994825;28;20515;-70
2023/06/16 03:53:47;;;;;;;13.07;11.50;;;17.20;1.00;;;;;;4992514;28;20546;-70
2023/06/16 03:56:14;;;;;;;13.87;12.83;;;17.20;1.00;;;;;;4993899;28;20889;-70
2023/06/16 03:58:43;;;;;;;12.77;11.77;;;17.20;1.00;;;;;;4991943;28;20499;-71
2023/06/16 04:01:10;;;;;;;12.17;10.97;;;17.30;1.00;;;;;;4989267;28;20930;-71
2023/06/16 04:03:37;;;;;;;13.43;11.13;;;17.30;1.00;;;;;;4987191;28;20498;-71
2023/06/16 04:06:04;;;;;;;11.83;10.73;;;17.30;1.00;;;;;;4984359;28;20491;-69
2023/06/16 04:08:31;;;;;;;12.20;10.90;;;17.40;1.00;;;;;;4992412;28;20513;-71
2023/06/16 04:10:58;;;;;;;14.03;12.53;;;17.30;1.00;;;;;;4993592;28;20487;-71
2023/06/16 04:13:25;;;;;;;13.27;11.97;;;17.40;1.00;;;;;;4992080;28;20571;-71
2023/06/16 04:15:54;;;;;;;10.67;9.77;;;17.40;1.00;;;;;;4991702;28;20562;-71
2023/06/16 04:18:21;;;;;;;13.13;10.87;;;17.30;1.00;;;;;;4987570;28;20455;-71
2023/06/16 04:20:48;;;;;;;11.50;10.20;;;17.40;1.00;;;;;;4988309;28;20530;-71
2023/06/16 04:23:15;;;;;;;46.50;39.57;;;17.50;1.00;;;;;;4989477;28;20465;-71
2023/06/16 04:25:42;;;;;;;12.67;11.37;;;17.50;1.00;;;;;;4994098;28;20481;-71
2023/06/16 04:28:13;;;;;;;11.50;10.53;;;17.60;1.00;;;;;;4987937;28;20865;-70
2023/06/16 04:30:42;;;;;;;13.00;11.80;;;17.60;1.00;;;;;;4991423;28;20510;-70
2023/06/16 04:33:10;;;;;;;12.27;11.00;;;17.60;1.00;;;;;;4992742;28;20481;-70
2023/06/16 04:35:39;;;;;;;12.10;11.07;;;17.60;1.00;;;;;;4992781;28;20459;-70
2023/06/16 04:38:07;;;;;;;11.80;10.83;;;17.60;1.00;;;;;;4989831;28;20434;-70
2023/06/16 04:40:34;;;;;;;15.63;14.23;;;17.70;1.00;;;;;;4995675;28;20540;-73
2023/06/16 04:43:00;;;;;;;18.90;12.40;;;17.70;1.00;;;;;;4989633;28;20579;-71
2023/06/16 04:45:27;;;;;;;12.20;11.20;;;17.70;1.00;;;;;;4987599;28;20470;-70
2023/06/16 04:47:54;;;;;;;11.47;10.47;;;17.70;1.00;;;;;;4991204;28;20460;-71
2023/06/16 04:50:22;;;;;;;11.87;10.87;;;17.70;1.00;;;;;;4991884;28;20492;-70
2023/06/16 04:52:49;;;;;;;12.47;11.47;;;17.70;1.00;;;;;;4986832;28;20584;-71
2023/06/16 04:55:17;;;;;;;12.03;11.13;;;17.70;1.00;;;;;;4991082;28;20463;-71
2023/06/16 04:57:45;;;;;;;12.90;11.40;;;17.70;1.00;;;;;;4990098;28;20530;-70
2023/06/16 05:00:13;;;;;;;11.43;10.43;;;17.70;1.00;;;;;;4989665;28;20534;-71
2023/06/16 05:02:40;;;;;;;13.70;11.50;;;17.80;1.00;;;;;;4990280;28;21030;-72
2023/06/16 05:05:08;;;;;;;12.47;11.23;;;17.80;1.00;;;;;;4986029;28;20471;-71
2023/06/16 05:07:37;;;;;;;11.03;10.13;;;17.90;1.00;;;;;;4989036;28;21295;-71
2023/06/16 05:10:05;;;;;;;10.63;9.77;;;17.90;1.00;;;;;;4990123;28;20464;-71
2023/06/16 05:12:32;;;;;;;11.70;10.60;;;17.90;1.00;;;;;;4984997;28;20488;-71
2023/06/16 05:15:00;;;;;;;11.43;10.53;;;18.00;1.00;;;;;;4991297;28;20510;-71
2023/06/16 05:17:27;;;;;;;13.33;12.13;;;18.00;1.00;;;;;;4990037;28;20544;-70
2023/06/16 05:19:54;;;;;;;11.83;10.83;;;17.90;1.00;;;;;;4987118;28;20562;-70
2023/06/16 05:22:23;;;;;;;10.90;9.83;;;18.00;1.00;;;;;;4989646;28;20536;-71
2023/06/16 05:24:54;;;;;;;23.20;20.90;;;17.90;1.00;;;;;;4988729;28;20456;-72
2023/06/16 05:27:23;;;;;;;11.23;10.03;;;17.90;1.00;;;;;;4987312;28;20460;-71
2023/06/16 05:29:50;;;;;;;11.27;10.03;;;18.00;1.00;;;;;;4988901;28;20475;-72
2023/06/16 05:32:19;;;;;;;12.47;11.33;;;18.00;1.00;;;;;;4983333;28;20463;-71
2023/06/16 05:34:46;;;;;;;17.47;15.63;;;18.10;1.00;;;;;;4988950;28;20449;-70
2023/06/16 05:37:15;;;;;;;11.63;10.43;;;18.20;1.00;;;;;;4988934;28;20547;-70
2023/06/16 05:39:43;;;;;;;12.80;11.60;;;18.20;1.00;;;;;;4986272;28;20490;-69
2023/06/16 05:42:13;;;;;;;11.37;10.40;;;18.20;1.00;;;;;;4986396;28;21030;-70
2023/06/16 05:44:41;;;;;;;11.37;10.37;;;18.30;1.00;;;;;;4987967;28;20847;-72
2023/06/16 05:47:08;;;;;;;13.50;10.40;;;18.40;1.00;;;;;;4986284;28;20609;-71
2023/06/16 05:49:36;;;;;;;13.47;10.83;;;18.50;1.00;;;;;;4987908;28;20522;-73
2023/06/16 05:52:04;;;;;;;10.60;9.60;;;18.70;1.00;;;;;;4989593;28;20490;-73
2023/06/16 05:54:31;;;;;;;13.63;10.27;;;18.80;1.00;;;;;;4972328;28;20457;-71
2023/06/16 05:56:58;;;;;;;10.60;9.60;;;18.90;1.00;;;;;;4989778;28;20594;-72
2023/06/16 05:59:27;;;;;;;10.43;9.50;;;19.10;1.00;;;;;;4989773;28;20898;-71
2023/06/16 06:01:55;;;;;;;9.70;8.90;;;19.10;1.00;;;;;;4988663;28;20560;-73
2023/06/16 06:04:30;;;;;;;12.30;9.93;;;19.10;1.00;;;;;;4990238;28;20454;-72
2023/06/16 06:06:57;;;;;;;8.57;7.83;;;19.10;1.00;;;;;;4991177;28;20445;-72
2023/06/16 06:09:24;;;;;;;10.77;9.70;;;19.20;1.00;;;;;;4989309;28;20517;-71
2023/06/16 06:11:51;;;;;;;9.70;8.90;;;19.10;1.00;;;;;;4986981;28;20584;-75
2023/06/16 06:14:19;;;;;;;9.57;8.77;;;19.20;1.00;;;;;;4989090;28;20460;-71
2023/06/16 06:16:47;;;;;;;9.07;8.27;;;19.20;1.00;;;;;;4988740;28;20477;-72
2023/06/16 06:19:14;;;;;;;9.13;8.43;;;19.20;1.00;;;;;;4987598;28;20408;-72
2023/06/16 06:21:44;;;;;;;10.07;9.37;;;19.10;1.00;;;;;;4988799;28;20476;-72
2023/06/16 06:24:14;;;;;;;10.83;9.40;;;19.10;1.00;;;;;;4988707;28;20511;-70
2023/06/16 06:26:42;;;;;;;12.83;11.70;;;19.10;1.00;;;;;;4991051;28;20470;-71
2023/06/16 06:29:10;;;;;;;11.50;10.50;;;19.00;1.00;;;;;;4987530;28;20467;-71
2023/06/16 06:31:36;;;;;;;10.20;9.40;;;19.00;1.00;;;;;;4991348;28;20879;-72
2023/06/16 06:34:05;;;;;;;10.37;9.50;;;19.00;1.00;;;;;;4987442;28;20557;-70
2023/06/16 06:36:32;;;;;;;9.77;8.77;;;18.90;1.00;;;;;;4990612;28;20473;-70
2023/06/16 06:38:59;;;;;;;9.23;8.43;;;18.90;1.00;;;;;;4990931;28;20963;-72
2023/06/16 06:41:26;;;;;;;10.37;9.37;;;18.90;1.00;;;;;;4991699;28;20497;-71
2023/06/16 06:43:53;;;;;;;9.63;8.70;;;19.00;1.00;;;;;;4989781;28;20461;-72
2023/06/16 06:46:21;;;;;;;9.87;9.07;;;19.00;1.00;;;;;;4991066;28;20457;-72
2023/06/16 06:48:48;;;;;;;12.07;8.33;;;18.90;1.00;;;;;;4990289;28;20474;-72
2023/06/16 06:51:17;;;;;;;9.43;8.13;;;18.90;1.00;;;;;;4985490;28;20548;-71
2023/06/16 06:53:44;;;;;;;8.30;7.50;;;18.80;1.00;;;;;;4989423;28;20476;-71
2023/06/16 06:56:12;;;;;;;9.00;8.27;;;18.80;1.00;;;;;;4986988;28;20462;-71
2023/06/16 06:58:39;;;;;;;8.87;8.17;;;18.90;1.00;;;;;;4987714;28;20477;-72
2023/06/16 07:01:06;;;;;;;9.33;8.63;;;18.90;1.00;;;;;;4985206;28;20501;-70
2023/06/16 07:03:33;;;;;;;10.13;7.90;;;18.90;1.00;;;;;;4992348;28;20654;-71
2023/06/16 07:06:00;;;;;;;8.23;7.40;;;18.90;1.00;;;;;;4990886;28;20520;-71
2023/06/16 07:08:28;;;;;;;9.30;8.60;;;18.90;1.00;;;;;;4990722;28;20457;-70
2023/06/16 07:10:55;;;;;;;9.43;8.73;;;18.80;1.00;;;;;;4989070;28;20473;-70
2023/06/16 07:13:22;;;;;;;7.17;6.47;;;18.70;1.00;;;;;;4988548;28;20547;-71
2023/06/16 07:15:49;;;;;;;7.23;6.73;;;18.60;1.00;;;;;;4989370;28;20472;-71
2023/06/16 07:18:16;;;;;;;8.30;7.60;;;18.50;1.00;;;;;;4992508;28;20469;-71
2023/06/16 07:20:43;;;;;;;7.57;6.87;;;18.30;1.00;;;;;;4992864;28;20486;-71
2023/06/16 07:23:10;;;;;;;7.80;7.20;;;18.20;1.00;;;;;;4989814;28;20555;-71
2023/06/16 07:25:38;;;;;;;7.00;6.50;;;18.10;1.00;;;;;;4991505;28;20571;-71
2023/06/16 07:28:06;;;;;;;8.73;7.93;;;18.10;1.00;;;;;;4991274;28;20468;-71
2023/06/16 07:30:33;;;;;;;14.27;13.17;;;18.10;1.00;;;;;;4991981;28;20503;-72
2023/06/16 07:33:00;;;;;;;9.53;8.63;;;18.10;1.00;;;;;;4990996;28;20967;-71
2023/06/16 07:35:27;;;;;;;8.67;7.97;;;18.10;1.00;;;;;;4994249;28;20455;-71
2023/06/16 07:37:54;;;;;;;8.30;7.60;;;18.10;1.00;;;;;;4990042;28;20536;-72
2023/06/16 07:40:21;;;;;;;9.50;8.70;;;18.10;1.00;;;;;;4993932;28;20460;-72
2023/06/16 07:42:50;;;;;;;11.77;10.97;;;18.10;1.00;;;;;;4990932;28;20488;-70
2023/06/16 07:45:17;;;;;;;9.30;8.60;;;18.20;1.00;;;;;;4991635;28;20478;-71
2023/06/16 07:47:45;;;;;;;11.20;10.37;;;18.30;1.00;;;;;;4991689;28;20819;-71
2023/06/16 07:50:13;;;;;;;10.60;9.80;;;18.50;1.00;;;;;;4992183;28;20604;-72
2023/06/16 07:52:41;;;;;;;11.30;10.50;;;18.60;1.00;;;;;;4995753;28;21015;-72
2023/06/16 07:55:10;;;;;;;10.13;9.30;;;18.70;1.00;;;;;;4993054;28;20626;-72
2023/06/16 07:57:40;;;;;;;10.07;9.27;;;19.00;1.00;;;;;;4992227;28;20504;-71
2023/06/16 08:00:15;;;;;;;10.33;9.43;;;19.30;1.00;;;;;;4992971;28;20492;-74
2023/06/16 08:02:42;;;;;;;13.77;10.83;;;19.60;1.00;;;;;;4992438;28;20560;-71
2023/06/16 08:05:11;;;;;;;11.70;10.70;;;19.70;1.00;;;;;;4992108;28;20467;-70
2023/06/16 08:07:38;;;;;;;13.23;11.90;;;20.00;1.00;;;;;;4992226;28;20578;-71
2023/06/16 08:10:07;;;;;;;12.30;11.03;;;20.30;1.00;;;;;;4991525;28;21580;-72
2023/06/16 08:12:35;;;;;;;11.90;10.67;;;20.40;1.00;;;;;;4988035;28;20874;-71
2023/06/16 08:15:03;;;;;;;11.80;10.60;;;20.40;1.00;;;;;;4990356;28;20562;-71
2023/06/16 08:17:32;;;;;;;10.30;9.40;;;20.40;1.00;;;;;;4992009;28;20479;-71
2023/06/16 08:19:59;;;;;;;10.87;9.93;;;20.40;1.00;;;;;;4990593;28;20477;-70
2023/06/16 08:22:26;;;;;;;11.03;9.90;;;20.40;1.00;;;;;;4994966;28;20989;-70
2023/06/16 08:24:55;;;;;;;12.20;11.20;;;20.50;1.00;;;;;;4990696;28;20493;-71
2023/06/16 08:27:22;;;;;;;10.20;9.40;;;20.70;1.00;;;;;;4993441;28;20550;-70
2023/06/16 08:29:50;;;;;;;14.33;9.63;;;20.90;1.00;;;;;;4992376;28;20517;-71
2023/06/16 08:32:17;;;;;;;13.43;12.33;;;21.10;1.00;;;;;;4991822;28;20447;-71
2023/06/16 08:34:45;;;;;;;10.43;9.40;;;21.20;1.00;;;;;;4992534;28;20559;-72
2023/06/16 08:37:12;;;;;;;10.60;9.60;;;21.60;1.00;;;;;;4992048;28;20467;-71
2023/06/16 08:39:39;;;;;;;8.60;7.90;;;21.90;1.00;;;;;;4990432;28;20556;-71
2023/06/16 08:42:07;;;;;;;8.80;8.20;;;22.30;1.00;;;;;;4991368;28;20472;-72
2023/06/16 08:44:35;;;;;;;8.80;8.07;;;22.70;1.00;;;;;;4991204;28;20470;-72
2023/06/16 08:47:04;;;;;;;10.30;8.33;;;23.20;1.00;;;;;;4991601;28;20466;-71
2023/06/16 08:49:32;;;;;;;7.33;6.83;;;23.50;1.00;;;;;;4984703;28;20478;-71
2023/06/16 08:52:03;;;;;;;7.60;6.80;;;23.40;1.00;;;;;;4990463;28;20451;-71
2023/06/16 08:54:37;;;;;;;7.83;6.33;;;22.80;1.00;;;;;;4990065;28;20485;-71
2023/06/16 08:57:07;;;;;;;10.17;6.90;;;21.70;1.00;;;;;;4991803;28;20462;-70
2023/06/16 08:59:34;;;;;;;6.50;6.00;;;20.50;1.00;;;;;;4992825;28;20529;-72
2023/06/16 09:02:01;;;;;;;7.83;6.20;;;19.70;1.00;;;;;;4989775;28;20554;-70
2023/06/16 09:04:32;;;;;;;6.67;6.10;;;18.90;1.00;;;;;;4998419;28;21037;-72
2023/06/16 09:07:01;;;;;;;8.60;7.20;;;18.30;1.00;;;;;;4990713;28;20528;-72
2023/06/16 09:09:27;;;;;;;8.07;7.37;;;18.10;1.00;;;;;;4991300;28;20500;-73
2023/06/16 09:12:05;;;;;;;8.00;7.20;;;17.90;1.00;;;;;;4992158;28;20461;-74
2023/06/16 09:14:33;;;;;;;6.60;6.07;;;17.90;1.00;;;;;;4990608;28;20458;-72
2023/06/16 09:17:01;;;;;;;6.63;6.13;;;17.80;1.00;;;;;;4988521;28;20456;-70
2023/06/16 09:19:28;;;;;;;7.20;6.50;;;17.70;1.00;;;;;;4991899;28;20489;-71
2023/06/16 09:21:56;;;;;;;6.90;6.30;;;17.70;1.00;;;;;;4990402;28;20463;-73
2023/06/16 09:24:28;;;;;;;12.20;11.10;;;17.60;1.00;;;;;;4989310;28;20884;-71
2023/06/16 09:26:59;;;;;;;8.37;7.67;;;17.70;1.00;;;;;;4992703;28;20558;-71
2023/06/16 09:29:27;;;;;;;7.43;6.73;;;18.00;1.00;;;;;;4991553;28;20485;-71
2023/06/16 09:31:55;;;;;;;7.03;6.47;;;18.20;1.00;;;;;;4989162;28;20482;-71
2023/06/16 09:34:21;;;;;;;8.07;7.47;;;18.50;1.00;;;;;;4991654;28;20499;-72
2023/06/16 09:36:48;;;;;;;6.90;6.40;;;19.00;1.00;;;;;;4990246;28;20468;-70
2023/06/16 09:39:23;;;;;;;8.10;7.40;;;19.30;1.00;;;;;;4990744;28;20468;-70
2023/06/16 09:41:52;;;;;;;7.57;6.87;;;19.90;1.00;;;;;;4990506;28;20488;-71
2023/06/16 09:44:22;;;;;;;6.10;5.60;;;20.90;1.00;;;;;;4989686;28;20467;-72
2023/06/16 09:46:50;;;;;;;5.87;5.37;;;22.20;1.00;;;;;;4992063;28;20502;-70
2023/06/16 09:49:21;;;;;;;6.17;5.67;;;23.20;1.00;;;;;;4991411;28;20605;-71
2023/06/16 09:51:54;;;;;;;7.30;6.63;;;23.20;1.00;;;;;;4990986;28;20622;-70
2023/06/16 09:54:22;;;;;;;5.20;4.80;;;24.00;1.00;;;;;;4984596;28;20466;-72
2023/06/16 09:56:51;;;;;;;5.80;5.00;;;24.70;1.00;;;;;;4990645;28;20462;-73
2023/06/16 09:59:18;;;;;;;5.00;4.60;;;25.50;1.00;;;;;;4992596;28;20471;-71
2023/06/16 10:01:48;;;;;;;6.37;5.10;;;25.80;1.00;;;;;;4990759;28;20538;-71
2023/06/16 10:04:16;;;;;;;6.30;5.27;;;25.00;1.00;;;;;;4991215;28;20544;-71
2023/06/16 10:06:49;;;;;;;7.07;6.47;;;24.40;1.00;;;;;;4973995;28;20469;-71
2023/06/16 10:09:20;;;;;;;7.27;4.57;;;23.90;1.00;;;;;;4990221;28;20471;-73
2023/06/16 10:11:48;;;;;;;5.50;5.07;;;23.10;1.00;;;;;;4993002;28;20464;-71
2023/06/16 10:14:19;;;;;;;6.87;6.30;;;22.50;1.00;;;;;;4991613;28;20541;-72
2023/06/16 10:16:50;;;;;;;9.40;8.40;;;22.10;1.00;;;;;;4992383;28;20536;-71
2023/06/16 10:19:21;;;;;;;7.50;6.73;;;22.20;1.00;;;;;;4991476;28;20465;-70
2023/06/16 10:21:50;;;;;;;6.67;6.17;;;22.50;1.00;;;;;;4990919;28;20494;-72
2023/06/16 10:24:18;;;;;;;6.27;5.77;;;23.00;1.00;;;;;;4995225;28;20455;-72
2023/06/16 10:26:46;;;;;;;6.67;5.47;;;23.30;1.00;;;;;;4994412;28;20487;-71
2023/06/16 10:29:16;;;;;;;6.60;5.83;;;23.80;1.00;;;;;;4992894;28;20469;-71
2023/06/16 10:31:45;;;;;;;7.03;5.80;;;24.30;1.00;;;;;;4989821;28;20934;-71
2023/06/16 10:34:19;;;;;;;6.30;5.70;;;24.50;1.00;;;;;;4992900;28;20457;-70
2023/06/16 10:36:46;;;;;;;9.90;8.70;;;24.30;1.00;;;;;;4989137;28;20538;-72
2023/06/16 10:39:13;;;;;;;6.80;6.30;;;23.90;1.00;;;;;;4990673;28;20952;-71
2023/06/16 10:41:52;;;;;;;8.50;7.60;;;23.50;1.00;;;;;;4989198;28;20435;-70
2023/06/16 10:44:26;;;;;;;10.83;6.93;;;23.20;1.00;;;;;;4989911;28;20464;-70
2023/06/16 10:47:36;;;;;;;6.10;5.60;;;23.00;1.00;;;;;;4992664;28;20578;-70
2023/06/16 10:50:06;;;;;;;6.87;6.27;;;23.00;1.00;;;;;;4992825;28;20839;-70
2023/06/16 10:52:52;;;;;;;6.97;6.33;;;23.30;1.00;;;;;;4999137;28;20458;-71
2023/06/16 10:55:35;;;;;;;8.50;6.80;;;23.40;1.00;;;;;;4995993;28;20459;-71
2023/06/16 10:58:30;;;;;;;7.83;7.10;;;23.30;1.00;;;;;;4992990;28;20458;-71
2023/06/16 11:01:07;;;;;;;7.30;6.70;;;22.80;1.00;;;;;;4952845;28;20470;-73
2023/06/16 11:03:38;;;;;;;6.57;6.00;;;22.50;1.00;;;;;;4992232;28;20571;-74
2023/06/16 11:06:06;;;;;;;6.57;5.97;;;22.30;1.00;;;;;;4992933;28;20466;-71
2023/06/16 11:08:49;;;;;;;13.07;7.93;;;22.30;1.00;;;;;;4995848;28;20458;-70
2023/06/16 11:11:17;;;;;;;7.03;6.33;;;22.80;1.00;;;;;;4991409;28;20470;-72
2023/06/16 11:13:44;;;;;;;7.93;6.90;;;23.40;1.00;;;;;;4995042;28;20455;-71
2023/06/16 11:16:11;;;;;;;6.40;5.83;;;24.20;1.00;;;;;;4992798;28;20487;-71
2023/06/16 11:18:38;;;;;;;7.03;6.43;;;24.40;1.00;;;;;;4995160;28;20522;-72
2023/06/16 11:21:08;;;;;;;6.73;6.17;;;24.30;1.00;;;;;;4994427;28;20518;-72
2023/06/16 11:23:35;;;;;;;7.63;6.93;;;23.90;1.00;;;;;;4993879;28;20463;-72
2023/06/16 11:26:05;;;;;;;6.37;5.70;;;23.40;1.00;;;;;;4992382;28;20486;-71
2023/06/16 11:28:33;;;;;;;6.53;6.03;;;23.10;1.00;;;;;;4995555;28;20470;-70
2023/06/16 11:31:01;;;;;;;7.40;5.97;;;23.10;1.00;;;;;;4992531;28;20482;-72
2023/06/16 11:33:32;;;;;;;7.00;6.30;;;23.50;1.00;;;;;;4997186;28;20459;-72
2023/06/16 11:36:15;;;;;;;6.50;6.00;;;23.70;1.00;;;;;;4993650;28;20572;-70
2023/06/16 11:38:43;;;;;;;11.23;6.60;;;23.90;1.00;;;;;;4994645;28;21664;-71
2023/06/16 11:41:16;;;;;;;7.90;6.90;;;23.90;1.00;;;;;;4992237;28;21021;-72
2023/06/16 11:43:43;;;;;;;8.73;6.37;;;24.20;1.00;;;;;;4998614;28;20450;-70
2023/06/16 11:46:10;;;;;;;6.17;5.67;;;24.60;1.00;;;;;;4994275;28;20470;-73
2023/06/16 11:48:38;;;;;;;6.90;6.20;;;25.20;1.00;;;;;;4995368;28;20449;-71
2023/06/16 11:51:05;;;;;;;8.03;7.27;;;25.50;1.00;;;;;;4994393;28;20561;-71
2023/06/16 11:53:35;;;;;;;7.30;6.60;;;26.00;1.00;;;;;;4994837;28;20483;-70
2023/06/16 11:56:04;;;;;;;5.90;5.37;;;26.80;1.00;;;;;;4994098;28;20845;-71
2023/06/16 11:58:31;;;;;;;7.73;6.80;;;27.50;1.00;;;;;;4995570;28;20472;-71
2023/06/16 12:01:01;;;;;;;6.67;6.17;;;27.60;1.00;;;;;;4993587;28;20930;-70
2023/06/16 12:03:29;;;;;;;6.43;5.87;;;26.70;1.00;;;;;;4992203;28;20451;-70
2023/06/16 12:05:57;;;;;;;6.80;6.20;;;25.70;1.00;;;;;;4994640;28;20599;-70
2023/06/16 12:08:41;;;;;;;8.97;8.03;;;24.60;1.00;;;;;;4996055;28;20445;-71
2023/06/16 12:11:09;;;;;;;7.57;6.90;;;23.50;1.00;;;;;;4993800;28;20483;-71
2023/06/16 12:13:37;;;;;;;7.57;6.90;;;22.60;1.00;;;;;;4992080;28;21233;-71
2023/06/16 12:16:06;;;;;;;9.60;7.50;;;22.00;1.00;;;;;;4994384;28;20464;-71
2023/06/16 12:18:33;;;;;;;8.57;7.60;;;21.50;1.00;;;;;;4992124;28;20676;-73
2023/06/16 12:21:15;;;;;;;8.10;7.20;;;21.20;1.00;;;;;;4994693;28;20529;-70
2023/06/16 12:23:48;;;;;;;9.30;8.50;;;20.80;1.00;;;;;;4995721;28;20447;-71
2023/06/16 12:26:35;;;;;;;10.23;8.10;;;20.60;1.00;;;;;;4995193;28;20569;-71
2023/06/16 12:29:09;;;;;;;9.13;7.50;;;20.40;1.00;;;;;;4993149;28;20482;-72
2023/06/16 12:31:36;;;;;;;8.87;7.57;;;20.40;1.00;;;;;;4992829;28;20474;-71
2023/06/16 12:34:03;;;;;;;7.50;6.70;;;20.60;1.00;;;;;;4994700;28;20518;-71
2023/06/16 12:36:30;;;;;;;7.00;6.30;;;20.70;1.00;;;;;;4992412;28;20934;-71
2023/06/16 12:38:59;;;;;;;6.90;6.10;;;20.70;1.00;;;;;;4993495;28;20529;-70
2023/06/16 12:41:31;;;;;;;7.10;6.50;;;20.70;1.00;;;;;;4993544;28;20511;-71
2023/06/16 12:43:58;;;;;;;7.80;7.00;;;20.80;1.00;;;;;;4995025;28;20455;-70
2023/06/16 12:46:25;;;;;;;7.70;6.90;;;20.90;1.00;;;;;;4991559;28;20565;-71
2023/06/16 12:48:52;;;;;;;6.47;5.83;;;20.80;1.00;;;;;;4992179;28;20861;-72
2023/06/16 12:51:21;;;;;;;7.00;6.50;;;20.70;1.00;;;;;;4990858;28;21305;-71
2023/06/16 12:53:48;;;;;;;7.23;6.53;;;20.70;1.00;;;;;;4994747;28;20511;-71
2023/06/16 12:56:16;;;;;;;6.50;6.00;;;20.60;1.00;;;;;;4992810;28;20448;-71